createdAt,value
2022-12-27T00:00:10.584Z,101592.94
2022-12-27T00:03:05.908Z,101592.25
2022-12-27T00:05:33.713Z,101587.41
2022-12-27T00:08:01.935Z,101585.00
2022-12-27T00:10:29.738Z,101581.47
2022-12-27T00:12:58.564Z,101589.03
2022-12-27T00:15:26.893Z,101590.75
2022-12-27T00:17:55.964Z,101587.28
2022-12-27T00:20:24.222Z,101593.50
2022-12-27T00:22:52.233Z,101588.38
2022-12-27T00:25:19.924Z,101584.84
2022-12-27T00:27:48.085Z,101596.19
2022-12-27T00:30:15.796Z,101584.56
2022-12-27T00:32:45.115Z,101584.84
2022-12-27T00:35:12.906Z,101588.22
2022-12-27T00:37:42.135Z,101585.03
2022-12-27T00:40:10.700Z,101592.06
2022-12-27T00:42:40.075Z,101590.84
2022-12-27T00:45:08.409Z,101585.47
2022-12-27T00:47:36.526Z,101590.78
2022-12-27T00:50:05.060Z,101581.88
2022-12-27T00:52:34.196Z,101579.78
2022-12-27T00:55:01.916Z,101575.88
2022-12-27T00:57:30.000Z,101579.22
2022-12-27T00:59:57.756Z,101578.91
2022-12-27T01:02:26.327Z,101579.63
2022-12-27T01:04:55.203Z,101571.13
2022-12-27T01:07:24.404Z,101568.22
2022-12-27T01:09:52.096Z,101571.41
2022-12-27T01:12:20.197Z,101565.47
2022-12-27T01:14:47.963Z,101569.69
2022-12-27T01:17:16.224Z,101572.50
2022-12-27T01:19:43.946Z,101576.41
2022-12-27T01:22:12.272Z,101564.47
2022-12-27T01:24:40.045Z,101570.75
2022-12-27T01:27:08.141Z,101572.06
2022-12-27T01:29:35.906Z,101569.81
2022-12-27T01:32:04.801Z,101575.22
2022-12-27T01:34:32.658Z,101573.88
2022-12-27T01:37:01.030Z,101572.34
2022-12-27T01:39:28.838Z,101572.72
2022-12-27T01:42:15.330Z,101571.34
2022-12-27T01:44:53.088Z,101576.53
2022-12-27T01:47:36.297Z,101578.19
2022-12-27T01:50:19.697Z,101570.03
2022-12-27T01:53:12.544Z,101580.16
2022-12-27T01:55:43.327Z,101577.25
2022-12-27T01:58:14.580Z,101560.78
2022-12-27T02:00:45.027Z,101573.63
2022-12-27T02:03:20.468Z,101570.19
2022-12-27T02:05:49.359Z,101568.66
2022-12-27T02:08:29.286Z,101569.47
2022-12-27T02:10:58.857Z,101566.88
2022-12-27T02:13:32.134Z,101567.28
2022-12-27T02:15:59.973Z,101562.09
2022-12-27T02:18:28.335Z,101563.25
2022-12-27T02:21:27.796Z,101557.31
2022-12-27T02:24:18.956Z,101559.19
2022-12-27T02:26:52.344Z,101565.63
2022-12-27T02:29:55.857Z,101556.75
2022-12-27T02:32:36.844Z,101559.63
2022-12-27T02:35:32.316Z,101565.13
2022-12-27T02:38:10.916Z,101556.59
2022-12-27T02:41:01.052Z,101557.25
2022-12-27T02:43:47.570Z,101565.25
2022-12-27T02:46:47.508Z,101559.44
2022-12-27T02:49:50.605Z,101557.88
2022-12-27T02:53:06.044Z,101561.84
2022-12-27T02:56:22.715Z,101565.22
2022-12-27T02:59:16.093Z,101553.22
2022-12-27T03:02:24.121Z,101550.69
2022-12-27T03:05:19.843Z,101539.72
2022-12-27T03:08:24.095Z,101554.00
2022-12-27T03:11:17.864Z,101560.31
2022-12-27T03:14:26.012Z,101558.03
2022-12-27T03:17:01.281Z,101558.25
2022-12-27T03:19:51.357Z,101560.31
2022-12-27T03:22:42.137Z,101559.34
2022-12-27T03:25:29.429Z,101560.44
2022-12-27T03:28:29.332Z,101564.53
2022-12-27T03:31:31.403Z,101562.44
2022-12-27T03:34:27.342Z,101561.72
2022-12-27T03:37:16.392Z,101555.38
2022-12-27T03:40:09.686Z,101561.81
2022-12-27T03:43:06.539Z,101557.03
2022-12-27T03:46:15.566Z,101561.06
2022-12-27T03:48:52.018Z,101562.38
2022-12-27T03:51:23.029Z,101561.88
2022-12-27T03:53:55.286Z,101566.72
2022-12-27T03:56:24.023Z,101565.47
2022-12-27T03:58:52.944Z,101552.91
2022-12-27T04:01:21.149Z,101558.69
2022-12-27T04:03:48.952Z,101559.97
2022-12-27T04:06:17.044Z,101566.16
2022-12-27T04:09:03.983Z,101560.41
2022-12-27T04:11:50.631Z,101562.00
2022-12-27T04:14:37.032Z,101564.66
2022-12-27T04:17:23.988Z,101564.09
2022-12-27T04:20:10.697Z,101565.94
2022-12-27T04:22:58.412Z,101567.38
2022-12-27T04:25:44.955Z,101557.75
2022-12-27T04:28:33.461Z,101569.38
2022-12-27T04:31:20.238Z,101572.78
2022-12-27T04:34:08.452Z,101561.06
2022-12-27T04:36:36.889Z,101561.69
2022-12-27T04:39:05.052Z,101558.47
2022-12-27T04:41:51.390Z,101560.50
2022-12-27T04:44:38.333Z,101563.97
2022-12-27T04:47:24.763Z,101558.69
2022-12-27T04:50:11.620Z,101565.03
2022-12-27T04:52:58.583Z,101567.03
2022-12-27T04:55:29.452Z,101570.38
2022-12-27T04:57:58.337Z,101562.91
2022-12-27T05:00:49.236Z,101560.47
2022-12-27T05:03:20.502Z,101560.78
2022-12-27T05:05:52.659Z,101563.22
2022-12-27T05:08:39.821Z,101569.41
2022-12-27T05:11:27.186Z,101573.69
2022-12-27T05:14:01.234Z,101573.22
2022-12-27T05:16:35.537Z,101570.28
2022-12-27T05:19:04.852Z,101565.94
2022-12-27T05:21:37.375Z,101572.47
2022-12-27T05:24:24.412Z,101570.03
2022-12-27T05:26:56.783Z,101575.44
2022-12-27T05:29:24.588Z,101573.91
2022-12-27T05:31:52.751Z,101575.34
2022-12-27T05:34:20.567Z,101585.59
2022-12-27T05:36:48.633Z,101572.66
2022-12-27T05:39:16.391Z,101568.47
2022-12-27T05:41:44.645Z,101575.34
2022-12-27T05:44:12.541Z,101575.41
2022-12-27T05:46:40.861Z,101569.16
2022-12-27T05:49:08.692Z,101573.78
2022-12-27T05:51:37.254Z,101580.03
2022-12-27T05:54:05.324Z,101572.53
2022-12-27T05:56:37.493Z,101576.34
2022-12-27T05:59:05.852Z,101582.59
2022-12-27T06:01:34.597Z,101589.81
2022-12-27T06:04:02.841Z,101590.75
2022-12-27T06:06:31.533Z,101587.91
2022-12-27T06:08:59.341Z,101599.22
2022-12-27T06:11:27.482Z,101595.38
2022-12-27T06:13:56.502Z,101590.34
2022-12-27T06:16:25.177Z,101591.66
2022-12-27T06:18:53.536Z,101597.50
2022-12-27T06:21:23.262Z,101601.25
2022-12-27T06:23:51.055Z,101603.97
2022-12-27T06:26:23.719Z,101608.19
2022-12-27T06:28:53.032Z,101609.41
2022-12-27T06:31:22.040Z,101608.84
2022-12-27T06:33:51.491Z,101612.22
2022-12-27T06:36:24.492Z,101617.03
2022-12-27T06:38:52.347Z,101626.50
2022-12-27T06:41:20.430Z,101631.16
2022-12-27T06:43:49.243Z,101628.22
2022-12-27T06:46:18.760Z,101636.91
2022-12-27T06:48:47.721Z,101632.97
2022-12-27T06:51:17.563Z,101639.41
2022-12-27T06:53:49.982Z,101641.69
2022-12-27T06:56:22.857Z,101646.13
2022-12-27T06:58:51.325Z,101642.28
2022-12-27T07:01:25.378Z,101650.44
2022-12-27T07:03:59.198Z,101648.97
2022-12-27T07:06:31.202Z,101653.19
2022-12-27T07:09:01.078Z,101653.97
2022-12-27T07:11:34.120Z,101651.25
2022-12-27T07:14:02.442Z,101665.69
2022-12-27T07:16:32.200Z,101658.91
2022-12-27T07:19:00.394Z,101668.81
2022-12-27T07:21:30.737Z,101673.41
2022-12-27T07:23:58.701Z,101681.63
2022-12-27T07:26:30.692Z,101674.97
2022-12-27T07:29:01.290Z,101676.03
2022-12-27T07:31:33.290Z,101686.13
2022-12-27T07:34:04.800Z,101686.59
2022-12-27T07:36:38.816Z,101686.72
2022-12-27T07:39:08.388Z,101690.50
2022-12-27T07:41:37.377Z,101695.06
2022-12-27T07:44:06.368Z,101699.34
2022-12-27T07:46:34.724Z,101692.13
2022-12-27T07:49:02.694Z,101699.13
2022-12-27T07:51:32.123Z,101697.00
2022-12-27T07:53:59.916Z,101700.78
2022-12-27T07:56:29.202Z,101701.38
2022-12-27T07:58:59.674Z,101705.72
2022-12-27T08:01:55.328Z,101707.00
2022-12-27T08:04:23.510Z,101714.84
2022-12-27T08:06:51.615Z,101712.25
2022-12-27T08:09:27.172Z,101712.91
2022-12-27T08:11:56.287Z,101716.97
2022-12-27T08:14:24.003Z,101720.53
2022-12-27T08:16:52.901Z,101720.91
2022-12-27T08:19:20.703Z,101724.72
2022-12-27T08:21:49.872Z,101724.22
2022-12-27T08:24:17.634Z,101727.59
2022-12-27T08:26:47.774Z,101728.13
2022-12-27T08:29:15.577Z,101731.38
2022-12-27T08:31:43.721Z,101737.91
2022-12-27T08:34:11.505Z,101727.72
2022-12-27T08:36:56.177Z,101737.78
2022-12-27T08:39:24.643Z,101734.47
2022-12-27T08:41:54.425Z,101738.69
2022-12-27T08:44:23.188Z,101742.34
2022-12-27T08:46:52.799Z,101748.88
2022-12-27T08:49:20.813Z,101754.41
2022-12-27T08:51:48.997Z,101754.34
2022-12-27T08:54:17.115Z,101759.94
2022-12-27T08:56:45.264Z,101760.75
2022-12-27T08:59:13.208Z,101756.84
2022-12-27T09:01:41.609Z,101756.91
2022-12-27T09:04:09.603Z,101762.38
2022-12-27T09:06:40.978Z,101756.91
2022-12-27T09:09:08.773Z,101764.69
2022-12-27T09:11:37.095Z,101767.50
2022-12-27T09:14:06.210Z,101773.59
2022-12-27T09:16:36.000Z,101772.91
2022-12-27T09:19:04.575Z,101775.44
2022-12-27T09:21:34.244Z,101781.63
2022-12-27T09:24:03.427Z,101776.50
2022-12-27T09:26:32.566Z,101781.97
2022-12-27T09:29:00.794Z,101780.13
2022-12-27T09:31:30.409Z,101784.75
2022-12-27T09:33:59.521Z,101778.00
2022-12-27T09:36:29.911Z,101786.22
2022-12-27T09:38:59.049Z,101793.50
2022-12-27T09:44:54.737Z,101783.56
2022-12-27T09:47:31.516Z,101783.03
2022-12-27T09:50:10.539Z,101781.16
2022-12-27T09:53:17.707Z,101784.00
2022-12-27T09:55:49.557Z,101778.25
2022-12-27T09:58:29.599Z,101776.53
2022-12-27T10:00:57.378Z,101777.53
2022-12-27T10:03:27.975Z,101774.53
2022-12-27T10:06:41.407Z,101773.47
2022-12-27T10:09:28.817Z,101769.22
2022-12-27T10:12:15.306Z,101769.72
2022-12-27T10:15:23.676Z,101765.22
2022-12-27T10:18:03.024Z,101762.88
2022-12-27T10:20:53.680Z,101760.03
2022-12-27T10:23:26.932Z,101755.94
2022-12-27T10:26:06.509Z,101765.25
2022-12-27T10:28:50.329Z,101750.88
2022-12-27T10:31:24.100Z,101748.88
2022-12-27T10:33:52.874Z,101751.50
2022-12-27T10:36:30.791Z,101757.63
2022-12-27T10:38:58.684Z,101756.09
2022-12-27T10:41:39.330Z,101750.34
2022-12-27T10:44:12.076Z,101750.31
2022-12-27T10:46:43.727Z,101757.91
2022-12-27T10:49:26.306Z,101756.94
2022-12-27T10:51:59.493Z,101743.91
2022-12-27T10:54:30.576Z,101735.63
2022-12-27T10:57:38.072Z,101740.84
2022-12-27T11:00:18.208Z,101741.47
2022-12-27T11:02:52.859Z,101745.16
2022-12-27T11:05:27.648Z,101750.25
2022-12-27T11:07:56.799Z,101735.88
2022-12-27T11:10:31.555Z,101736.16
2022-12-27T11:12:59.948Z,101732.56
2022-12-27T11:15:30.530Z,101733.47
2022-12-27T11:18:20.797Z,101739.38
2022-12-27T11:20:58.129Z,101733.88
2022-12-27T11:23:36.007Z,101727.81
2022-12-27T11:26:06.762Z,101723.13
2022-12-27T11:28:38.506Z,101740.56
2022-12-27T11:31:19.359Z,101735.72
2022-12-27T11:33:53.139Z,101735.59
2022-12-27T11:36:40.988Z,101726.56
2022-12-27T11:39:43.672Z,101725.38
2022-12-27T11:42:38.669Z,101724.84
2022-12-27T11:45:12.927Z,101727.81
2022-12-27T11:48:02.381Z,101733.38
2022-12-27T11:50:30.708Z,101729.63
2022-12-27T11:53:19.629Z,101712.25
2022-12-27T11:56:21.984Z,101715.31
2022-12-27T11:59:02.703Z,101716.81
2022-12-27T12:02:15.011Z,101714.00
2022-12-27T12:05:35.290Z,101704.34
2022-12-27T12:08:34.654Z,101705.56
2022-12-27T12:11:24.115Z,101699.59
2022-12-27T12:14:28.365Z,101709.16
2022-12-27T12:17:03.152Z,101693.75
2022-12-27T12:20:01.411Z,101694.72
2022-12-27T12:22:34.797Z,101691.75
2022-12-27T12:25:40.711Z,101688.16
2022-12-27T12:29:01.199Z,101692.88
2022-12-27T12:31:47.384Z,101682.22
2022-12-27T12:34:54.018Z,101687.91
2022-12-27T12:37:34.288Z,101686.91
2022-12-27T12:40:20.840Z,101681.22
2022-12-27T12:43:01.820Z,101688.00
2022-12-27T12:45:39.057Z,101677.91
2022-12-27T12:48:35.802Z,101677.16
2022-12-27T12:51:12.574Z,101677.16
2022-12-27T12:54:05.436Z,101673.50
2022-12-27T12:56:46.151Z,101670.19
2022-12-27T12:59:14.619Z,101663.41
2022-12-27T13:02:12.736Z,101667.78
2022-12-27T13:05:02.139Z,101661.72
2022-12-27T13:07:41.646Z,101659.09
2022-12-27T13:11:00.533Z,101663.41
2022-12-27T13:14:05.821Z,101656.28
2022-12-27T13:17:04.793Z,101656.84
2022-12-27T13:19:50.461Z,101646.47
2022-12-27T13:22:46.080Z,101658.97
2022-12-27T13:25:19.850Z,101663.75
2022-12-27T13:28:15.858Z,101654.25
2022-12-27T13:30:54.144Z,101650.94
2022-12-27T13:33:35.421Z,101652.63
2022-12-27T13:36:27.020Z,101650.09
2022-12-27T13:38:58.346Z,101652.00
2022-12-27T13:41:38.386Z,101662.50
2022-12-27T13:44:12.490Z,101661.69
2022-12-27T13:47:21.098Z,101663.03
2022-12-27T13:49:57.686Z,101669.81
2022-12-27T13:52:59.453Z,101655.31
2022-12-27T13:55:38.087Z,101666.81
2022-12-27T13:58:18.689Z,101660.06
2022-12-27T14:01:13.279Z,101665.28
2022-12-27T14:03:41.565Z,101661.69
2022-12-27T14:06:23.045Z,101674.94
2022-12-27T14:09:15.753Z,101666.13
2022-12-27T14:11:44.014Z,101661.28
2022-12-27T14:14:17.446Z,101665.47
2022-12-27T14:17:02.199Z,101671.41
2022-12-27T14:19:30.161Z,101668.91
2022-12-27T14:22:20.901Z,101672.72
2022-12-27T14:25:06.596Z,101677.31
2022-12-27T14:28:11.591Z,101674.78
2022-12-27T14:31:10.397Z,101684.38
2022-12-27T14:34:16.870Z,101677.72
2022-12-27T14:37:09.136Z,101687.09
2022-12-27T14:40:29.905Z,101686.59
2022-12-27T14:43:34.532Z,101700.22
2022-12-27T14:46:24.053Z,101699.94
2022-12-27T14:49:25.456Z,101696.66
2022-12-27T14:52:19.429Z,101692.16
2022-12-27T14:55:08.752Z,101689.06
2022-12-27T14:57:36.913Z,101694.69
2022-12-27T15:00:13.504Z,101693.84
2022-12-27T15:03:00.845Z,101689.94
2022-12-27T15:05:41.077Z,101698.63
2022-12-27T15:08:27.619Z,101690.72
2022-12-27T15:11:16.873Z,101688.38
2022-12-27T15:13:48.834Z,101699.38
2022-12-27T15:16:17.134Z,101700.09
2022-12-27T15:19:22.825Z,101704.28
2022-12-27T15:22:20.646Z,101707.38
2022-12-27T15:25:16.803Z,101705.38
2022-12-27T15:28:10.641Z,101709.16
2022-12-27T15:31:01.619Z,101714.13
2022-12-27T15:33:41.927Z,101720.13
2022-12-27T15:36:21.943Z,101722.53
2022-12-27T15:38:54.691Z,101728.41
2022-12-27T15:41:33.651Z,101734.97
2022-12-27T15:44:19.729Z,101732.59
2022-12-27T15:46:50.946Z,101742.25
2022-12-27T15:49:33.966Z,101742.94
2022-12-27T15:52:22.277Z,101743.91
2022-12-27T15:55:24.958Z,101745.97
2022-12-27T15:58:18.674Z,101749.41
2022-12-27T16:01:26.207Z,101751.38
2022-12-27T16:03:55.396Z,101743.97
2022-12-27T16:06:35.199Z,101745.38
2022-12-27T16:09:34.046Z,101755.94
2022-12-27T16:12:11.368Z,101751.81
2022-12-27T16:14:42.380Z,101750.72
2022-12-27T16:17:18.908Z,101744.97
2022-12-27T16:19:50.813Z,101745.81
2022-12-27T16:22:35.901Z,101746.34
2022-12-27T16:25:31.446Z,101752.25
2022-12-27T16:28:23.986Z,101745.41
2022-12-27T16:30:55.771Z,101752.13
2022-12-27T16:33:26.388Z,101747.41
2022-12-27T16:36:26.697Z,101751.47
2022-12-27T16:39:12.677Z,101757.38
2022-12-27T16:41:58.646Z,101756.66
2022-12-27T16:44:26.484Z,101765.13
2022-12-27T16:47:15.017Z,101768.28
2022-12-27T16:50:00.628Z,101771.91
2022-12-27T16:53:09.067Z,101767.59
2022-12-27T16:56:00.282Z,101766.19
2022-12-27T16:58:31.313Z,101763.47
2022-12-27T17:01:01.492Z,101767.63
2022-12-27T17:03:35.631Z,101774.88
2022-12-27T17:06:32.995Z,101772.47
2022-12-27T17:09:21.894Z,101783.56
2022-12-27T17:11:52.803Z,101785.09
2022-12-27T17:14:31.894Z,101790.91
2022-12-27T17:17:22.752Z,101786.00
2022-12-27T17:20:05.411Z,101797.88
2022-12-27T17:22:36.596Z,101786.47
2022-12-27T17:25:05.319Z,101789.59
2022-12-27T17:27:57.056Z,101795.16
2022-12-27T17:30:55.778Z,101797.78
2022-12-27T17:33:29.254Z,101800.22
2022-12-27T17:36:40.220Z,101808.47
2022-12-27T17:39:20.486Z,101809.13
2022-12-27T17:42:35.302Z,101814.34
2022-12-27T17:45:31.478Z,101811.22
2022-12-27T17:48:29.825Z,101812.97
2022-12-27T17:51:05.157Z,101809.75
2022-12-27T17:53:52.657Z,101801.25
2022-12-27T17:56:42.817Z,101803.69
2022-12-27T17:59:15.394Z,101803.47
2022-12-27T18:01:43.453Z,101800.75
2022-12-27T18:04:25.692Z,101797.38
2022-12-27T18:06:56.361Z,101792.97
2022-12-27T18:09:49.663Z,101798.13
2022-12-27T18:12:53.108Z,101795.81
2022-12-27T18:15:25.498Z,101799.38
2022-12-27T18:18:00.179Z,101795.59
2022-12-27T18:20:31.421Z,101794.69
2022-12-27T18:23:01.034Z,101792.75
2022-12-27T18:25:33.438Z,101790.06
2022-12-27T18:28:34.573Z,101788.94
2022-12-27T18:31:17.487Z,101791.94
2022-12-27T18:33:53.983Z,101795.13
2022-12-27T18:36:30.632Z,101804.19
2022-12-27T18:38:59.206Z,101798.13
2022-12-27T18:41:46.624Z,101798.75
2022-12-27T18:44:27.637Z,101790.31
2022-12-27T18:47:00.495Z,101791.91
2022-12-27T18:49:36.119Z,101791.66
2022-12-27T18:52:21.262Z,101795.88
2022-12-27T18:54:49.476Z,101803.41
2022-12-27T18:57:37.327Z,101810.03
2022-12-27T19:00:25.885Z,101808.66
2022-12-27T19:03:11.594Z,101806.50
2022-12-27T19:05:40.414Z,101804.16
2022-12-27T19:08:20.338Z,101802.03
2022-12-27T19:10:50.917Z,101798.06
2022-12-27T19:13:50.027Z,101796.53
2022-12-27T19:16:26.003Z,101800.00
2022-12-27T19:18:58.659Z,101801.63
2022-12-27T19:21:34.163Z,101802.66
2022-12-27T19:24:30.669Z,101804.09
2022-12-27T19:27:02.197Z,101800.06
2022-12-27T19:29:37.907Z,101799.72
2022-12-27T19:32:10.680Z,101802.25
2022-12-27T19:34:48.307Z,101813.00
2022-12-27T19:37:16.683Z,101811.75
2022-12-27T19:39:48.023Z,101805.41
2022-12-27T19:42:22.736Z,101801.94
2022-12-27T19:44:52.326Z,101799.28
2022-12-27T19:47:20.278Z,101813.63
2022-12-27T19:49:49.786Z,101812.13
2022-12-27T19:52:27.199Z,101823.63
2022-12-27T19:55:07.962Z,101829.50
2022-12-27T19:57:36.101Z,101827.34
2022-12-27T20:00:12.068Z,101824.41
2022-12-27T20:02:44.889Z,101830.56
2022-12-27T20:05:14.272Z,101840.41
2022-12-27T20:07:42.410Z,101839.59
2022-12-27T20:10:15.507Z,101835.59
2022-12-27T20:12:43.463Z,101838.31
2022-12-27T20:15:11.859Z,101840.91
2022-12-27T20:17:44.614Z,101843.38
2022-12-27T20:20:14.633Z,101835.66
2022-12-27T20:22:42.544Z,101841.53
2022-12-27T20:25:10.987Z,101837.81
2022-12-27T20:27:38.978Z,101834.91
2022-12-27T20:30:08.951Z,101829.09
2022-12-27T20:32:36.961Z,101834.44
2022-12-27T20:35:05.793Z,101836.84
2022-12-27T20:37:33.787Z,101842.69
2022-12-27T20:40:02.040Z,101853.84
2022-12-27T20:42:30.035Z,101867.50
2022-12-27T20:44:58.343Z,101857.09
2022-12-27T20:47:26.294Z,101856.28
2022-12-27T20:49:55.567Z,101852.28
2022-12-27T20:52:28.947Z,101855.75
2022-12-27T20:54:59.382Z,101846.94
2022-12-27T20:57:28.174Z,101853.31
2022-12-27T20:59:56.393Z,101851.13
2022-12-27T21:02:24.455Z,101850.63
2022-12-27T21:04:52.889Z,101860.22
2022-12-27T21:07:21.215Z,101860.75
2022-12-27T21:09:49.495Z,101869.06
2022-12-27T21:12:17.862Z,101873.28
2022-12-27T21:14:46.343Z,101863.41
2022-12-27T21:17:14.544Z,101854.09
2022-12-27T21:19:42.943Z,101860.72
2022-12-27T21:22:10.858Z,101860.50
2022-12-27T21:24:39.255Z,101852.81
2022-12-27T21:27:07.152Z,101852.25
2022-12-27T21:29:35.342Z,101858.88
2022-12-27T21:32:03.359Z,101858.66
2022-12-27T21:34:32.323Z,101856.78
2022-12-27T21:37:06.373Z,101860.53
2022-12-27T21:39:39.411Z,101860.81
2022-12-27T21:42:07.396Z,101868.25
2022-12-27T21:44:37.103Z,101866.13
2022-12-27T21:47:06.426Z,101863.72
2022-12-27T21:49:35.215Z,101862.84
2022-12-27T21:52:03.255Z,101862.91
2022-12-27T21:54:31.564Z,101852.25
2022-12-27T21:56:59.529Z,101857.84
2022-12-27T21:59:27.846Z,101868.47
2022-12-27T22:01:55.847Z,101866.38
2022-12-27T22:04:24.260Z,101876.69
2022-12-27T22:06:52.292Z,101889.19
2022-12-27T22:09:20.624Z,101889.44
2022-12-27T22:11:49.358Z,101894.22
2022-12-27T22:14:21.808Z,101890.81
2022-12-27T22:16:53.399Z,101891.06
2022-12-27T22:19:21.870Z,101899.09
2022-12-27T22:21:50.447Z,101897.78
2022-12-27T22:24:20.297Z,101885.75
2022-12-27T22:26:50.305Z,101899.63
2022-12-27T22:29:19.153Z,101913.53
2022-12-27T22:31:47.147Z,101902.28
2022-12-27T22:34:15.003Z,101898.59
2022-12-27T22:36:43.415Z,101900.44
2022-12-27T22:39:11.651Z,101899.31
2022-12-27T22:41:40.123Z,101893.13
2022-12-27T22:44:12.656Z,101889.47
2022-12-27T22:47:25.138Z,101893.97
2022-12-27T22:49:31.690Z,101888.88
2022-12-27T22:52:00.058Z,101893.19
2022-12-27T22:55:03.349Z,101902.00
2022-12-27T22:57:16.383Z,101896.41
2022-12-27T22:59:44.353Z,101895.38
2022-12-27T23:02:14.099Z,101888.38
2022-12-27T23:04:42.300Z,101896.94
2022-12-27T23:07:11.905Z,101885.63
2022-12-27T23:09:43.476Z,101889.44
2022-12-27T23:12:13.056Z,101882.53
2022-12-27T23:14:41.369Z,101883.25
2022-12-27T23:17:09.953Z,101881.63
2022-12-27T23:19:38.000Z,101874.69
2022-12-27T23:22:07.508Z,101865.19
2022-12-27T23:24:35.475Z,101868.13
2022-12-27T23:27:03.835Z,101859.56
2022-12-27T23:29:31.820Z,101866.25
2022-12-27T23:32:00.253Z,101856.06
2022-12-27T23:34:29.298Z,101857.72
2022-12-27T23:36:59.119Z,101848.91
2022-12-27T23:39:27.794Z,101850.03
2022-12-27T23:41:56.271Z,101841.97
2022-12-27T23:44:32.876Z,101849.72
2022-12-27T23:47:06.382Z,101848.91
2022-12-27T23:49:35.569Z,101838.41
2022-12-27T23:52:03.973Z,101850.75
2022-12-27T23:54:32.038Z,101839.22
2022-12-27T23:57:20.291Z,101848.03
2022-12-27T23:59:49.632Z,101842.22
